Latest Weather Observations for Brisbane Airport

IDQ60901

Issued at 11:21 pm EST Wednesday 12 August 2020 (issued every 10 minutes, with the page automatically refreshed every 10 minutes)

About weather observations | Map of Brisbane area stations | Latest observations for Brisbane area | Other Formats
Station Details ID: 040842 Name: BRISBANE AERO Lat: -27.39 Lon: 153.13 Height: 4.51 m
Data from the previous 72 hours. | See also: Recent months at Brisbane Airport
Date/Time
EST
Temp
°C
App
Temp
°C
Dew
Point
°C
Rel
Hum
%
Delta-T
°C
Wind Press
QNH
hPa
Press
MSL
hPa
Rain since
9am
mm
Dir  Spd
km/h
Gust
km/h
Spd
kts
Gust
kts
12/11:00pm 16.0 14.2 14.4 90 0.9 N 17 24 9 13 1017.1 1017.1 0.0
12/10:30pm 15.6 14.5 14.4 93 0.7 N 13 19 7 10 1017.2 1017.2 0.0
12/10:00pm 15.1 14.3 14.0 93 0.6 N 11 15 6 8 1017.2 1017.2 0.0
12/09:30pm 15.1 14.9 14.6 97 0.3 N 9 9 5 5 1017.2 1017.2 0.0
12/09:00pm 15.5 15.5 14.3 92 0.7 N 7 7 4 4 1017.6 1017.6 0.0
12/08:30pm 16.1 15.9 14.7 91 0.8 N 9 11 5 6 1017.6 1017.6 0.0
12/08:00pm 16.3 16.2 14.9 91 0.8 N 9 9 5 5 1017.5 1017.5 0.0
12/07:30pm 16.8 16.4 15.2 90 0.9 N 11 13 6 7 1017.2 1017.2 0.0
12/07:00pm 16.8 15.5 14.9 88 1.1 NNE 15 19 8 10 1016.6 1016.6 0.0
12/06:30pm 17.4 16.3 15.3 87 1.2 NNE 15 22 8 12 1016.1 1016.1 0.0
12/06:00pm 17.6 16.1 15.2 86 1.4 NE 17 22 9 12 1015.7 1015.7 0.0
12/05:30pm 17.6 16.4 15.0 85 1.5 NNE 15 22 8 12 1016.2 1016.2 0.0
12/05:00pm 18.6 16.9 14.6 77 2.3 NNE 17 22 9 12 1016.2 1016.2 0.0
12/04:30pm 19.3 17.7 13.9 71 3.1 NE 15 20 8 11 1016.0 1016.0 0.0
12/04:00pm 19.9 18.2 13.6 67 3.6 NE 15 19 8 10 1016.0 1016.0 0.0
12/03:30pm 20.6 19.5 15.2 71 3.2 NE 15 22 8 12 1016.0 1016.0 0.0
12/03:00pm 20.6 18.7 14.2 66 3.7 ENE 17 24 9 13 1015.9 1015.9 0.0
12/02:30pm 20.6 18.1 14.0 66 3.8 NE 20 26 11 14 1016.2 1016.2 0.0
12/02:00pm 20.5 17.9 13.1 62 4.2 ENE 19 26 10 14 1016.7 1016.7 0.0
12/01:30pm 21.1 18.2 14.0 64 4.1 NE 22 26 12 14 1016.7 1016.7 0.0
12/01:00pm 20.0 17.7 14.1 69 3.4 ENE 19 26 10 14 1017.2 1017.2 0.0
12/12:30pm 20.1 17.6 13.6 66 3.7 NE 19 26 10 14 1018.0 1017.9 0.0
12/12:00pm 20.7 18.4 12.9 61 4.4 NE 17 24 9 13 1018.6 1018.5 0.0
12/11:30am 20.4 18.5 13.0 62 4.2 ENE 15 20 8 11 1019.1 1019.0 0.0
12/11:00am 19.5 17.9 12.9 65 3.7 ENE 13 17 7 9 1019.9 1019.8 0.0
12/10:30am 19.8 18.7 12.1 61 4.3 SE 9 13 5 7 1020.2 1020.1 0.0
12/10:00am 19.3 18.4 12.7 65 3.7 ESE 9 13 5 7 1020.6 1020.5 0.0
12/09:30am 18.8 18.2 12.3 66 3.6 S 7 11 4 6 1020.9 1020.8 0.0
12/09:00am 17.6 16.7 12.5 72 2.8 SW 9 11 5 6 1021.1 1021.0 0.0
12/08:30am 15.5 14.1 12.2 81 1.8 SW 11 15 6 8 1021.0 1020.9 0.0
12/08:00am 14.5 12.7 12.1 85 1.3 SW 13 17 7 9 1020.7 1020.6 0.0
12/07:30am 13.0 11.4 11.5 91 0.8 SSW 11 15 6 8 1020.5 1020.4 0.0
12/07:00am 12.4 11.1 11.1 92 0.7 SW 9 9 5 5 1019.8 1019.7 0.0
12/06:30am 12.4 11.1 11.1 92 0.7 SW 9 13 5 7 1019.8 1019.7 0.0
12/06:00am 11.3 9.0 10.5 95 0.4 SW 13 13 7 7 1019.5 1019.4 0.0
12/05:30am 12.7 12.2 11.9 95 0.4 S 6 7 3 4 1018.9 1018.8 0.0
12/05:00am 13.0 13.7 12.1 94 0.5 CALM 0 6 0 3 1018.9 1018.8 0.0
12/04:30am 13.0 13.7 12.1 94 0.5 CALM 0 0 0 0 1019.0 1018.9 0.0
12/04:00am 12.1 12.5 11.3 95 0.4 CALM 0 0 0 0 1018.7 1018.6 0.0
12/03:30am 12.0 11.9 10.8 92 0.6 NNE 2 9 1 5 1019.1 1019.0 0.0
12/03:00am 10.7 9.6 9.9 95 0.4 NNW 6 9 3 5 1019.1 1019.0 0.0
12/02:30am 11.8 10.6 10.4 91 0.7 SW 7 9 4 5 1018.8 1018.7 0.0
12/02:00am 11.5 9.9 10.3 92 0.6 SW 9 11 5 6 1018.8 1018.7 0.0
12/01:30am 12.0 10.5 10.6 91 0.7 SW 9 11 5 6 1019.1 1019.0 0.0
12/01:00am 12.4 11.5 10.7 89 0.9 WSW 6 7 3 4 1019.1 1019.0 0.0
12/12:30am 11.8 10.6 10.4 91 0.7 WSW 7 7 4 4 1019.2 1019.1 0.0
12/12:00am 12.4 11.4 11.1 92 0.7 WSW 7 9 4 5 1019.0 1018.9 0.0
 
Date/Time
EST
Temp
°C
App
Temp
°C
Dew
Point
°C
Rel
Hum
%
Delta-T
°C
Wind Press
QNH
hPa
Press
MSL
hPa
Rain since
9am
mm
Dir  Spd
km/h
Gust
km/h
Spd
kts
Gust
kts
11/11:30pm 12.9 12.0 11.2 89 0.9 SSW 7 9 4 5 1019.0 1018.9 0.0
11/11:00pm 13.5 12.5 11.0 85 1.3 SSW 7 9 4 5 1019.2 1019.1 0.0
11/10:30pm 14.8 13.9 11.4 80 1.8 S 7 9 4 5 1019.3 1019.2 0.0
11/10:00pm 15.9 15.8 12.0 77 2.1 SE 4 9 2 5 1019.3 1019.2 0.0
11/09:30pm 16.3 15.8 12.1 76 2.3 SSE 6 9 3 5 1019.2 1019.1 0.0
11/09:00pm 16.3 16.4 12.7 79 2.0 SE 4 9 2 5 1019.0 1018.9 0.0
11/08:30pm 16.2 15.7 12.8 80 1.9 ESE 7 11 4 6 1019.0 1018.9 0.0
11/08:00pm 16.7 16.4 12.7 77 2.2 SE 6 9 3 5 1018.9 1018.8 0.0
11/07:30pm 16.4 16.3 13.9 85 1.4 ESE 7 11 4 6 1018.7 1018.6 0.0
11/07:00pm 16.8 16.4 14.0 83 1.6 ESE 9 15 5 8 1018.4 1018.3 0.0
11/06:30pm 17.3 17.0 13.4 78 2.2 E 7 11 4 6 1018.1 1018.0 0.0
11/06:00pm 17.7 16.9 12.9 73 2.7 E 9 11 5 6 1017.6 1017.6 0.0
11/05:30pm 18.1 16.8 12.5 70 3.1 ESE 11 19 6 10 1017.4 1017.4 0.0
11/05:00pm 18.9 17.3 11.6 62 4.0 ESE 11 15 6 8 1017.0 1017.0 0.0
11/04:30pm 19.4 17.3 11.2 59 4.5 E 13 20 7 11 1016.7 1016.7 0.0
11/04:00pm 19.8 17.5 10.3 54 5.1 ESE 13 20 7 11 1016.5 1016.5 0.0
11/03:30pm 20.2 17.3 9.7 51 5.6 E 15 22 8 12 1016.5 1016.5 0.0
11/03:00pm 20.3 17.3 9.4 49 5.8 E 15 20 8 11 1016.3 1016.3 0.0
11/02:30pm 20.7 17.7 9.4 48 6.0 ENE 15 20 8 11 1016.4 1016.4 0.0
11/02:00pm 20.2 17.2 9.2 49 5.8 E 15 26 8 14 1016.7 1016.7 0.0
11/01:30pm 20.7 18.1 9.2 47 6.1 ESE 13 19 7 10 1016.6 1016.6 0.0
11/01:00pm 21.3 19.5 9.5 47 6.3 SE 9 17 5 9 1016.7 1016.7 0.0
11/12:30pm 20.9 18.6 9.0 46 6.3 SE 11 17 6 9 1017.1 1017.1 0.0
11/12:00pm 21.0 18.3 9.1 46 6.3 SSE 13 19 7 10 1017.8 1017.8 0.0
11/11:30am 20.4 17.1 8.0 44 6.4 S 15 20 8 11 1018.2 1018.1 0.0
11/11:00am 20.0 16.8 8.5 47 6.0 SSW 15 26 8 14 1018.5 1018.4 0.0
11/10:30am 19.2 15.8 7.6 47 5.9 SSW 15 22 8 12 1018.8 1018.7 0.0
11/10:00am 18.8 14.6 7.6 48 5.7 SW 19 28 10 15 1018.9 1018.8 0.0
11/09:30am 18.1 13.6 7.1 48 5.5 SW 20 28 11 15 1018.9 1018.8 0.0
11/09:00am 17.2 12.8 6.7 50 5.2 SSW 19 30 10 16 1018.7 1018.6 0.0
11/08:30am 16.5 13.2 8.0 57 4.3 SW 15 20 8 11 1018.6 1018.5 0.0
11/08:00am 13.5 12.3 9.4 76 2.1 SSW 6 9 3 5 1018.7 1018.6 0.0
11/07:30am 12.1 10.6 9.1 82 1.5 SSW 7 9 4 5 1018.1 1018.0 0.0
11/07:00am 10.1 9.7 8.2 88 0.9 CALM 0 0 0 0 1017.8 1017.8 0.0
11/06:30am 9.7 7.8 7.6 87 1.0 SSW 7 9 4 5 1017.3 1017.3 0.0
11/06:00am 9.2 6.9 7.5 89 0.8 SW 9 11 5 6 1017.2 1017.2 0.0
11/05:30am 10.7 8.5 8.0 83 1.3 SSW 9 11 5 6 1016.4 1016.4 0.0
11/05:00am 9.3 6.2 7.2 87 1.0 SW 13 15 7 8 1016.2 1016.2 0.0
11/04:30am 10.7 8.1 7.8 82 1.4 SW 11 13 6 7 1015.8 1015.8 0.0
11/04:00am 9.5 6.5 7.6 88 0.9 WSW 13 17 7 9 1015.7 1015.7 0.0
11/03:30am 10.0 7.0 7.5 84 1.2 W 13 15 7 8 1015.7 1015.7 0.0
11/03:00am 10.3 8.7 7.8 84 1.2 W 6 7 3 4 1015.5 1015.5 0.0
11/02:30am 10.4 9.9 7.7 83 1.3 CALM 0 7 0 4 1015.3 1015.3 0.0
11/02:00am 10.7 8.9 8.0 83 1.3 W 7 9 4 5 1015.5 1015.5 0.0
11/01:30am 11.2 10.3 7.9 80 1.6 NNW 2 7 1 4 1015.6 1015.6 0.0
11/01:00am 10.7 7.6 7.4 80 1.6 W 13 15 7 8 1015.7 1015.7 0.0
11/12:30am 11.1 6.9 7.6 79 1.7 WSW 19 24 10 13 1015.6 1015.6 0.0
11/12:00am 11.3 7.5 7.6 78 1.8 WSW 17 22 9 12 1015.6 1015.6 0.0
 
Date/Time
EST
Temp
°C
App
Temp
°C
Dew
Point
°C
Rel
Hum
%
Delta-T
°C
Wind Press
QNH
hPa
Press
MSL
hPa
Rain since
9am
mm
Dir  Spd
km/h
Gust
km/h
Spd
kts
Gust
kts
10/11:30pm 12.6 8.4 7.5 71 2.5 WSW 19 24 10 13 1015.7 1015.7 0.0
10/11:00pm 12.7 9.2 7.3 69 2.6 W 15 20 8 11 1015.6 1015.6 0.0
10/10:30pm 12.1 7.8 6.9 70 2.5 WSW 19 24 10 13 1015.5 1015.5 0.0
10/10:00pm 12.8 8.8 6.7 66 2.9 WSW 17 24 9 13 1015.4 1015.4 0.0
10/09:30pm 13.4 9.3 6.3 62 3.4 WSW 17 22 9 12 1015.3 1015.3 0.0
10/09:00pm 13.7 9.2 6.1 60 3.6 W 19 24 10 13 1015.1 1015.1 0.0
10/08:30pm 13.7 8.6 6.1 60 3.6 W 22 30 12 16 1015.0 1015.0 0.0
10/08:00pm 13.7 8.5 5.6 58 3.8 WSW 22 32 12 17 1014.7 1014.7 0.0
10/07:30pm 13.7 8.5 5.4 57 3.9 W 22 30 12 16 1014.6 1014.6 0.0
10/07:00pm 13.8 8.1 5.0 55 4.1 W 24 30 13 16 1014.1 1014.1 0.0
10/06:30pm 13.3 8.0 5.1 57 3.8 W 22 28 12 15 1013.8 1013.8 0.0
10/06:00pm 13.7 7.6 4.9 55 4.1 W 26 33 14 18 1013.4 1013.4 0.0
10/05:30pm 14.0 8.2 4.5 52 4.4 WNW 24 30 13 16 1012.9 1012.9 0.0
10/05:00pm 14.8 6.9 4.2 49 4.9 WSW 35 46 19 25 1012.2 1012.2 0.0
10/04:30pm 15.8 8.1 3.3 43 5.7 WSW 33 44 18 24 1012.0 1012.0 0.0
10/04:00pm 16.4 8.2 2.7 40 6.2 W 35 46 19 25 1011.6 1011.6 0.0
10/03:30pm 17.1 9.0 3.2 39 6.4 WSW 35 50 19 27 1011.2 1011.2 0.0
10/03:00pm 17.2 8.8 3.7 40 6.3 WSW 37 46 20 25 1010.9 1010.9 0.0
10/02:35pm 17.4 9.3 3.1 38 6.6 WSW 35 54 19 29 1010.8 1010.8 0.0
10/02:30pm 17.8 9.3 3.4 38 6.7 WSW 37 52 20 28 1010.7 1010.7 0.0
10/02:00pm 18.1 8.9 3.6 38 6.8 W 41 57 22 31 1010.6 1010.6 0.0
10/01:30pm 17.2 8.7 3.1 39 6.5 WSW 37 52 20 28 1010.5 1010.5 0.0
10/01:00pm 16.8 8.3 3.1 40 6.3 W 37 52 20 28 1010.9 1010.9 0.0
10/12:30pm 17.6 10.0 3.7 39 6.5 WSW 33 48 18 26 1010.9 1010.9 0.0
10/12:00pm 16.3 8.6 3.2 41 6.0 W 33 50 18 27 1011.5 1011.5 0.0
10/11:30am 17.0 8.0 2.7 38 6.5 W 39 50 21 27 1011.9 1011.9 0.0
10/11:00am 16.8 8.3 3.3 40 6.2 WSW 37 54 20 29 1012.0 1012.0 0.0
10/10:30am 16.4 8.0 3.6 42 5.9 W 37 54 20 29 1012.2 1012.2 0.0
10/10:00am 15.2 8.2 4.2 48 5.1 WSW 30 37 16 20 1012.4 1012.4 0.0
10/09:54am 15.4 8.0 4.2 47 5.2 WSW 32 50 17 27 1012.5 1012.5 0.0
10/09:30am 15.6 7.8 4.7 48 5.1 W 35 48 19 26 1012.5 1012.5 0.0
10/09:22am 15.7 7.5 4.9 48 5.1 W 37 56 20 30 1012.4 1012.4 0.0
10/09:00am 15.4 7.9 4.7 49 5.0 W 33 43 18 23 1012.4 1012.4 0.0
10/08:30am 14.8 8.1 5.5 53 4.4 W 30 37 16 20 1012.4 1012.4 0.0
10/08:00am 14.1 7.4 5.7 57 4.0 W 30 41 16 22 1012.5 1012.5 0.0
10/07:30am 13.2 8.1 6.0 61 3.4 WNW 22 32 12 17 1012.2 1012.2 0.0
10/07:00am 12.3 7.8 6.2 66 2.9 WNW 19 30 10 16 1012.5 1012.5 0.0
10/06:30am 11.3 6.6 5.9 69 2.5 WNW 20 28 11 15 1012.2 1012.2 0.0
10/06:00am 11.0 6.8 5.8 70 2.4 NW 17 22 9 12 1012.0 1012.0 0.0
10/05:30am 10.7 7.6 5.7 71 2.3 NNW 11 15 6 8 1011.9 1011.9 0.0
10/05:00am 10.9 7.5 5.7 70 2.4 NNW 13 17 7 9 1011.5 1011.5 0.0
10/04:30am 12.3 7.7 5.4 63 3.2 NW 19 28 10 15 1011.2 1011.2 0.0
10/04:00am 12.0 7.3 5.0 62 3.2 W 19 30 10 16 1011.1 1011.1 0.0
10/03:30am 11.3 7.6 4.4 62 3.1 W 13 17 7 9 1011.4 1011.4 0.0
10/03:00am 12.1 7.9 3.8 57 3.7 W 15 19 8 10 1011.6 1011.6 0.0
10/02:30am 11.7 7.1 3.6 57 3.6 W 17 30 9 16 1011.7 1011.7 0.0
10/02:00am 11.1 6.9 3.9 61 3.2 W 15 17 8 9 1011.7 1011.7 0.0
10/01:30am 12.4 8.9 3.4 54 4.0 WNW 11 17 6 9 1012.0 1012.0 0.0
10/01:00am 11.4 7.2 3.7 59 3.4 W 15 19 8 10 1012.3 1012.3 0.0
10/12:30am 12.5 7.5 3.5 54 4.0 WNW 19 26 10 14 1012.6 1012.6 0.0
10/12:00am 11.3 6.7 3.9 60 3.3 WNW 17 22 9 12 1012.9 1012.9 0.0
 
Date/Time
EST
Temp
°C
App
Temp
°C
Dew
Point
°C
Rel
Hum
%
Delta-T
°C
Wind Press
QNH
hPa
Press
MSL
hPa
Rain since
9am
mm
Dir  Spd
km/h
Gust
km/h
Spd
kts
Gust
kts
09/11:30pm 9.4 6.4 3.9 68 2.4 WNW 9 11 5 6 1013.2 1013.2 0.0

Latest Capital City Observations: Canberra | Sydney | Melbourne | Brisbane | Adelaide | Perth | Hobart | Darwin

Other formats

Comma delimited format used in spreadsheet applications
http://www.bom.gov.au/fwo/IDQ60901/IDQ60901.94578.axf

JavaScript Object Notation format (JSON) in row-major order
http://www.bom.gov.au/fwo/IDQ60901/IDQ60901.94578.json

Data quality

Most of these data are generated automatically and are frequently updated. Quality checks on data are not normally performed. It is possible for incorrect values to appear. Refer to information at About Latest Weather Observations and please check the disclaimer before using these data.